Time;durP1;ratioP1;P1;durP2;ratioP2;P2;SDS_P1;SDS_P2;PMS_P1;PMS_P2;Temp;Humidity;BMP_temperature;BMP_pressure;BME280_temperature;BME280_humidity;BME280_pressure;Samples;Min_cycle;Max_cycle;Signal;HPM_P1;HPM_P2
2023/03/05 00:01:10;;;;;;;28.90;20.97;;;;;;;8.06;61.95;94453.59;4986768;28;20680;-66
2023/03/05 00:03:36;;;;;;;24.27;20.13;;;;;;;7.90;62.39;94444.63;4975812;28;20231;-67
2023/03/05 00:06:02;;;;;;;24.70;18.80;;;;;;;8.05;61.78;94442.31;4986106;28;20242;-66
2023/03/05 00:08:28;;;;;;;25.47;20.23;;;;;;;8.08;61.57;94435.97;4981820;28;20216;-67
2023/03/05 00:11:02;;;;;;;25.93;20.33;;;;;;;8.06;61.63;94435.28;4986424;28;20275;-67
2023/03/05 00:13:28;;;;;;;23.27;19.43;;;;;;;8.16;61.15;94441.25;4987474;28;20184;-66
2023/03/05 00:15:53;;;;;;;25.80;18.97;;;;;;;8.13;60.95;94436.34;4986783;28;20194;-66
2023/03/05 00:18:20;;;;;;;24.73;18.77;;;;;;;8.21;60.81;94446.88;4985845;28;20234;-66
2023/03/05 00:20:45;;;;;;;24.87;18.20;;;;;;;8.22;60.43;94435.41;4987511;28;20227;-66
2023/03/05 00:23:11;;;;;;;22.27;17.23;;;;;;;8.15;60.29;94431.75;4986387;28;20235;-69
2023/03/05 00:25:38;;;;;;;24.00;17.53;;;;;;;8.24;59.53;94428.22;4981075;28;20188;-66
2023/03/05 00:28:03;;;;;;;21.70;16.17;;;;;;;8.17;59.46;94425.38;4998583;28;20278;-66
2023/03/05 00:30:30;;;;;;;22.63;18.13;;;;;;;8.11;60.17;94425.19;4985261;28;20362;-66
2023/03/05 00:32:56;;;;;;;22.27;18.33;;;;;;;8.23;60.18;94423.94;4984100;28;20219;-66
2023/03/05 00:35:21;;;;;;;23.07;18.23;;;;;;;8.27;60.00;94427.09;4988025;28;20228;-66
2023/03/05 00:37:47;;;;;;;25.07;16.60;;;;;;;8.21;59.70;94425.09;4978057;28;20231;-66
2023/03/05 00:40:13;;;;;;;27.03;18.50;;;;;;;8.09;60.08;94421.88;4983865;28;20427;-67
2023/03/05 00:42:38;;;;;;;23.83;18.40;;;;;;;8.05;60.30;94420.56;4984790;28;20228;-66
2023/03/05 00:45:05;;;;;;;24.03;17.83;;;;;;;8.15;59.79;94416.03;4985943;28;20222;-66
2023/03/05 00:47:31;;;;;;;23.03;18.07;;;;;;;8.15;60.13;94411.63;4980346;28;20224;-66
2023/03/05 00:49:56;;;;;;;21.67;18.03;;;;;;;8.09;59.34;94406.16;4985158;28;20219;-68
2023/03/05 00:52:22;;;;;;;25.47;18.43;;;;;;;8.07;59.51;94402.88;4988651;28;20188;-66
2023/03/05 00:54:47;;;;;;;23.20;18.33;;;;;;;7.98;59.80;94402.00;4987838;28;20203;-66
2023/03/05 00:57:13;;;;;;;22.17;18.63;;;;;;;8.08;59.37;94404.53;4985553;28;20228;-67
2023/03/05 00:59:38;;;;;;;24.97;17.90;;;;;;;8.10;58.86;94403.41;4986435;28;20691;-67
2023/03/05 01:02:04;;;;;;;23.13;17.33;;;;;;;8.05;58.93;94408.28;4978345;28;20232;-67
2023/03/05 01:04:30;;;;;;;20.50;18.27;;;;;;;7.99;59.05;94397.56;4975837;28;20198;-67
2023/03/05 01:06:55;;;;;;;23.47;18.23;;;;;;;8.08;58.82;94400.13;4978179;28;20223;-67
2023/03/05 01:09:23;;;;;;;22.03;17.37;;;;;;;8.13;58.24;94391.81;4982983;28;20234;-67
2023/03/05 01:11:49;;;;;;;22.07;18.10;;;;;;;8.10;58.78;94392.09;4978572;28;20219;-67
2023/03/05 01:14:15;;;;;;;21.93;17.20;;;;;;;8.12;58.41;94390.16;4982352;28;20229;-67
2023/03/05 01:16:40;;;;;;;20.03;16.83;;;;;;;8.14;57.94;94382.97;4984035;28;20200;-67
2023/03/05 01:19:06;;;;;;;21.90;16.60;;;;;;;8.00;58.21;94388.75;4985037;28;20195;-67
2023/03/05 01:21:33;;;;;;;19.73;15.73;;;;;;;7.98;57.53;94382.84;4986081;28;20229;-66
2023/03/05 01:23:58;;;;;;;21.13;16.00;;;;;;;8.06;58.04;94390.78;4986374;28;20227;-67
2023/03/05 01:26:23;;;;;;;21.17;15.93;;;;;;;8.06;57.80;94380.28;4983851;28;20286;-67
2023/03/05 01:28:49;;;;;;;21.87;16.03;;;;;;;8.08;57.29;94383.59;4986179;28;20223;-70
2023/03/05 01:31:14;;;;;;;21.70;17.10;;;;;;;7.94;57.24;94388.41;4990334;28;20911;-70
2023/03/05 01:33:40;;;;;;;19.60;16.53;;;;;;;7.90;57.44;94379.19;4985418;28;20270;-70
2023/03/05 01:36:12;;;;;;;18.37;15.20;;;;;;;7.96;57.03;94372.53;4985884;28;20306;-70
2023/03/05 01:38:37;;;;;;;20.97;17.17;;;;;;;8.03;57.04;94372.75;4985842;28;20310;-69
2023/03/05 01:41:03;;;;;;;20.67;16.60;;;;;;;8.10;56.92;94377.22;4987445;28;20294;-70
2023/03/05 01:43:29;;;;;;;18.43;16.47;;;;;;;8.19;56.53;94380.72;4982024;28;20212;-70
2023/03/05 01:46:36;;;;;;;20.70;15.87;;;;;;;8.20;56.71;94371.06;4997694;28;20199;-69
2023/03/05 01:49:02;;;;;;;17.73;15.80;;;;;;;8.10;55.67;94376.38;4969280;28;20235;-70
2023/03/05 01:51:34;;;;;;;20.07;15.90;;;;;;;8.12;55.54;94377.06;4966663;28;20224;-70
2023/03/05 01:54:02;;;;;;;19.93;16.53;;;;;;;8.13;55.57;94378.72;4966011;28;20223;-70
2023/03/05 01:56:28;;;;;;;17.73;15.73;;;;;;;8.06;55.60;94370.63;4966112;28;20307;-70
2023/03/05 01:59:02;;;;;;;20.97;15.60;;;;;;;7.97;55.64;94376.81;4957980;28;20279;-70
2023/03/05 02:01:32;;;;;;;17.73;15.20;;;;;;;7.92;55.55;94379.84;4981478;28;20193;-70
2023/03/05 02:03:59;;;;;;;18.77;15.07;;;;;;;7.90;54.68;94366.09;4953061;28;20213;-70
2023/03/05 02:06:24;;;;;;;17.07;14.23;;;;;;;7.63;55.49;94372.25;4963654;28;20243;-69
2023/03/05 02:08:50;;;;;;;18.63;15.07;;;;;;;7.69;55.66;94374.25;4960519;28;20311;-69
2023/03/05 02:11:15;;;;;;;18.93;16.00;;;;;;;7.78;55.49;94367.31;4963001;28;20662;-70
2023/03/05 02:13:41;;;;;;;20.53;15.93;;;;;;;7.92;54.87;94371.19;4966555;28;20195;-70
2023/03/05 02:16:07;;;;;;;17.10;14.00;;;;;;;7.90;54.75;94376.56;4963381;28;20200;-70
2023/03/05 02:18:33;;;;;;;18.20;15.50;;;;;;;7.99;54.68;94380.06;4964052;28;20233;-70
2023/03/05 02:21:06;;;;;;;20.63;15.47;;;;;;;7.86;54.19;94369.19;4967467;28;20234;-70
2023/03/05 02:23:37;;;;;;;17.50;14.30;;;;;;;7.71;54.50;94372.31;4963924;28;20228;-70
2023/03/05 02:26:06;;;;;;;19.27;14.77;;;;;;;7.70;54.83;94375.91;4966438;28;20219;-70
2023/03/05 02:28:37;;;;;;;16.53;14.80;;;;;;;7.77;54.41;94372.69;4966423;28;20201;-70
2023/03/05 02:31:13;;;;;;;17.67;14.70;;;;;;;7.81;54.69;94372.25;4967483;28;20279;-70
2023/03/05 02:33:39;;;;;;;18.43;15.00;;;;;;;7.87;54.55;94382.09;4959029;28;20268;-71
2023/03/05 02:36:05;;;;;;;19.40;15.33;;;;;;;7.78;54.35;94375.16;4961808;28;20228;-71
2023/03/05 02:38:30;;;;;;;17.57;14.13;;;;;;;7.76;54.38;94371.88;4965049;28;20221;-70
2023/03/05 02:40:56;;;;;;;19.87;14.67;;;;;;;7.76;54.40;94371.06;4965993;28;20291;-70
2023/03/05 02:43:21;;;;;;;19.17;14.73;;;;;;;7.84;54.42;94374.56;4962652;28;20299;-71
2023/03/05 02:45:47;;;;;;;18.83;15.23;;;;;;;7.95;54.24;94383.97;4962318;28;20594;-71
2023/03/05 02:48:12;;;;;;;19.87;15.70;;;;;;;7.70;54.81;94382.94;4962595;28;20494;-71
2023/03/05 02:50:38;;;;;;;19.33;15.23;;;;;;;7.65;55.07;94379.97;4964116;28;20230;-71
2023/03/05 02:53:05;;;;;;;20.07;15.20;;;;;;;7.64;54.79;94388.75;4961636;28;20310;-71
2023/03/05 02:55:30;;;;;;;18.57;14.33;;;;;;;7.69;55.31;94382.09;4966544;28;20287;-71
2023/03/05 02:57:56;;;;;;;21.60;16.23;;;;;;;7.70;55.81;94385.56;4965100;28;20269;-71
2023/03/05 03:00:21;;;;;;;21.33;16.90;;;;;;;7.64;55.80;94380.91;4964732;28;20224;-71
2023/03/05 03:02:47;;;;;;;20.80;17.47;;;;;;;7.58;55.89;94384.13;4956406;28;20232;-71
2023/03/05 03:05:12;;;;;;;20.47;16.57;;;;;;;7.55;56.06;94387.06;4955581;28;20244;-71
2023/03/05 03:07:38;;;;;;;21.67;16.47;;;;;;;7.64;55.49;94376.50;4964121;28;20321;-72
2023/03/05 03:10:04;;;;;;;22.00;17.13;;;;;;;7.45;56.20;94380.06;4962317;28;20179;-72
2023/03/05 03:12:30;;;;;;;21.63;18.13;;;;;;;7.39;56.38;94372.81;4961835;28;20212;-71
2023/03/05 03:14:55;;;;;;;22.17;18.50;;;;;;;7.50;56.29;94384.88;4961841;28;20219;-72
2023/03/05 03:17:21;;;;;;;21.60;17.80;;;;;;;7.49;56.14;94380.63;4963905;28;20212;-71
2023/03/05 03:19:46;;;;;;;22.43;17.83;;;;;;;7.45;56.42;94374.84;4962296;28;20299;-71
2023/03/05 03:22:15;;;;;;;25.43;18.70;;;;;;;7.36;56.66;94388.81;4963737;28;20216;-71
2023/03/05 03:24:41;;;;;;;26.03;18.23;;;;;;;7.32;56.67;94378.78;4961901;28;20227;-71
2023/03/05 03:27:07;;;;;;;22.90;18.20;;;;;;;7.39;56.88;94380.69;4963921;28;20219;-72
2023/03/05 03:29:32;;;;;;;21.87;17.87;;;;;;;7.36;56.62;94382.78;4960475;28;20217;-68
2023/03/05 03:31:58;;;;;;;21.60;18.07;;;;;;;7.26;56.65;94382.81;4965246;28;20294;-68
2023/03/05 03:34:24;;;;;;;22.17;17.13;;;;;;;7.32;56.35;94392.69;4967102;28;20192;-70
2023/03/05 03:36:51;;;;;;;21.37;17.23;;;;;;;7.27;56.54;94387.06;4967193;28;20283;-70
2023/03/05 03:39:18;;;;;;;22.87;19.57;;;;;;;7.28;56.17;94371.25;4962449;28;20212;-70
2023/03/05 03:41:46;;;;;;;20.80;18.50;;;;;;;7.15;56.71;94385.66;4961910;28;20221;-69
2023/03/05 03:44:12;;;;;;;23.27;17.80;;;;;;;6.84;57.41;94389.38;4960380;28;20224;-69
2023/03/05 03:46:38;;;;;;;22.30;16.67;;;;;;;6.99;56.75;94378.44;4959250;28;20231;-69
2023/03/05 03:49:05;;;;;;;23.27;18.03;;;;;;;7.02;56.74;94375.53;4964313;28;20192;-69
2023/03/05 03:51:31;;;;;;;23.67;19.03;;;;;;;7.11;56.81;94381.66;4964776;28;20217;-69
2023/03/05 03:53:58;;;;;;;22.60;17.70;;;;;;;7.01;56.84;94390.41;4967268;28;20231;-69
2023/03/05 03:56:23;;;;;;;23.23;17.50;;;;;;;7.11;56.48;94384.28;4964638;28;20318;-69
2023/03/05 03:58:51;;;;;;;25.43;18.67;;;;;;;6.98;56.70;94382.84;4963910;28;20221;-69
2023/03/05 04:01:17;;;;;;;22.97;18.80;;;;;;;7.14;56.45;94382.22;4959190;28;20570;-70
2023/03/05 04:03:42;;;;;;;25.03;18.23;;;;;;;6.97;56.31;94381.19;4952079;28;20791;-69
2023/03/05 04:06:08;;;;;;;24.80;19.57;;;;;;;6.77;57.51;94393.53;4962828;28;20247;-69
2023/03/05 04:08:34;;;;;;;21.00;18.23;;;;;;;6.98;57.03;94395.91;4960982;28;20481;-69
2023/03/05 04:11:01;;;;;;;23.63;19.47;;;;;;;6.92;57.05;94395.66;4961751;28;20761;-70
2023/03/05 04:13:26;;;;;;;23.93;18.37;;;;;;;7.09;56.95;94396.69;4965845;28;20287;-70
2023/03/05 04:15:52;;;;;;;22.40;18.30;;;;;;;6.87;57.60;94397.88;4964368;28;21403;-70
2023/03/05 04:18:18;;;;;;;24.53;19.27;;;;;;;6.84;57.38;94399.00;4959101;28;20268;-70
2023/03/05 04:20:43;;;;;;;23.03;19.13;;;;;;;6.88;57.74;94394.31;4962591;28;20228;-70
2023/03/05 04:23:08;;;;;;;24.17;19.53;;;;;;;6.59;58.35;94398.69;4962855;28;20701;-66
2023/03/05 04:25:34;;;;;;;23.93;19.33;;;;;;;6.77;57.70;94401.38;4967854;28;20215;-66
2023/03/05 04:27:59;;;;;;;26.90;20.17;;;;;;;6.77;57.36;94395.31;4965480;28;20200;-66
2023/03/05 04:30:25;;;;;;;25.50;20.13;;;;;;;6.74;57.61;94404.28;4968046;28;20232;-66
2023/03/05 04:32:50;;;;;;;24.00;18.67;;;;;;;6.59;56.94;94390.03;4965030;28;20228;-66
2023/03/05 04:35:16;;;;;;;22.87;18.70;;;;;;;6.75;56.93;94400.69;4967180;28;20302;-67
2023/03/05 04:37:41;;;;;;;23.67;19.00;;;;;;;6.58;57.38;94389.22;4966519;28;20196;-67
2023/03/05 04:40:09;;;;;;;23.07;18.50;;;;;;;6.52;57.32;94389.78;4964800;28;20185;-66
2023/03/05 04:42:34;;;;;;;25.27;18.97;;;;;;;6.50;57.46;94396.94;4965784;28;20224;-66
2023/03/05 04:44:59;;;;;;;23.73;18.70;;;;;;;6.62;56.97;94389.72;4966825;28;20227;-66
2023/03/05 04:47:25;;;;;;;23.57;18.20;;;;;;;6.47;57.00;94384.16;4968640;28;20224;-66
2023/03/05 04:49:50;;;;;;;22.30;18.77;;;;;;;6.53;57.74;94383.59;4962795;28;20224;-66
2023/03/05 04:52:16;;;;;;;23.77;18.70;;;;;;;6.63;57.43;94380.94;4964050;28;20196;-66
2023/03/05 04:54:43;;;;;;;24.93;18.63;;;;;;;6.57;57.24;94382.31;4966924;28;20223;-66
2023/03/05 04:57:09;;;;;;;24.20;18.70;;;;;;;6.70;56.80;94384.63;4964447;28;20220;-66
2023/03/05 04:59:36;;;;;;;25.97;18.30;;;;;;;6.66;56.91;94380.66;4967925;28;20676;-66
2023/03/05 05:02:02;;;;;;;24.07;19.47;;;;;;;6.48;57.45;94377.16;4966312;28;20224;-66
2023/03/05 05:04:28;;;;;;;22.30;17.23;;;;;;;6.46;57.50;94382.50;4957673;28;20203;-66
2023/03/05 05:06:55;;;;;;;21.93;17.67;;;;;;;6.37;57.71;94392.00;4961449;28;20305;-67
2023/03/05 05:09:21;;;;;;;23.67;17.50;;;;;;;6.61;56.96;94388.09;4969162;28;20236;-68
2023/03/05 05:11:46;;;;;;;23.93;18.57;;;;;;;6.60;57.13;94386.44;4960304;28;20290;-68
2023/03/05 05:14:12;;;;;;;20.23;18.00;;;;;;;6.47;57.58;94392.00;4974978;28;20235;-68
2023/03/05 05:16:37;;;;;;;26.43;17.90;;;;;;;6.39;57.22;94384.88;4987341;28;20196;-68
2023/03/05 05:19:03;;;;;;;23.77;18.20;;;;;;;6.31;57.62;94397.00;4984445;28;20250;-68
2023/03/05 05:21:28;;;;;;;26.20;18.27;;;;;;;6.17;57.38;94395.63;4990477;28;20313;-67
2023/03/05 05:23:53;;;;;;;20.70;17.13;;;;;;;6.49;56.88;94395.25;4981831;28;20239;-67
2023/03/05 05:26:19;;;;;;;24.73;18.03;;;;;;;6.46;56.51;94394.75;4983746;28;20258;-67
2023/03/05 05:28:44;;;;;;;22.77;18.30;;;;;;;6.44;56.55;94394.06;4984794;28;20230;-67
2023/03/05 05:31:13;;;;;;;20.30;16.93;;;;;;;6.48;55.84;94380.56;4984803;28;20235;-68
2023/03/05 05:33:39;;;;;;;20.83;16.87;;;;;;;6.60;55.93;94389.03;4981565;28;20228;-68
2023/03/05 05:36:07;;;;;;;20.97;16.63;;;;;;;6.80;54.81;94389.81;4986076;28;20237;-67
2023/03/05 05:38:33;;;;;;;20.90;17.33;;;;;;;6.55;55.36;94405.16;4987645;28;20232;-67
2023/03/05 05:41:07;;;;;;;20.47;16.17;;;;;;;6.44;55.45;94394.88;4984540;28;20228;-67
2023/03/05 05:43:33;;;;;;;22.70;16.77;;;;;;;6.48;55.30;94403.25;4983987;28;20391;-67
2023/03/05 05:46:00;;;;;;;24.77;16.83;;;;;;;6.38;55.62;94396.25;4987283;28;20240;-67
2023/03/05 05:48:30;;;;;;;21.33;16.60;;;;;;;6.47;55.03;94396.38;4983476;28;20303;-68
2023/03/05 05:50:57;;;;;;;23.57;16.93;;;;;;;6.69;54.35;94398.66;4985586;28;20263;-69
2023/03/05 05:53:22;;;;;;;24.00;17.03;;;;;;;6.74;53.77;94400.84;4988244;28;20223;-68
2023/03/05 05:55:48;;;;;;;19.60;15.27;;;;;;;6.73;54.23;94405.22;4985172;28;20219;-67
2023/03/05 05:58:13;;;;;;;22.13;15.80;;;;;;;6.98;52.95;94408.16;4985978;28;20198;-67
2023/03/05 06:00:39;;;;;;;17.67;14.50;;;;;;;6.82;52.76;94406.19;4983546;28;20278;-74
2023/03/05 06:03:04;;;;;;;18.70;14.83;;;;;;;6.89;53.13;94422.09;4973623;28;20224;-75
2023/03/05 06:05:30;;;;;;;18.00;14.77;;;;;;;7.02;52.62;94428.63;4978226;28;20251;-74
2023/03/05 06:07:55;;;;;;;19.87;14.93;;;;;;;7.02;51.84;94423.41;4983265;28;20227;-73
2023/03/05 06:10:21;;;;;;;19.93;14.57;;;;;;;7.03;51.40;94409.38;4979910;28;20197;-72
2023/03/05 06:12:46;;;;;;;19.33;15.37;;;;;;;7.03;51.64;94417.22;4978845;28;20225;-71
2023/03/05 06:15:12;;;;;;;18.50;15.07;;;;;;;6.99;51.57;94418.47;4986698;28;20219;-72
2023/03/05 06:17:37;;;;;;;19.93;14.40;;;;;;;6.94;51.55;94414.66;4986375;28;20223;-73
2023/03/05 06:20:05;;;;;;;18.40;14.97;;;;;;;7.30;50.42;94418.19;4981488;28;20233;-72
2023/03/05 06:22:34;;;;;;;19.30;14.03;;;;;;;7.33;50.04;94417.88;4980410;28;20203;-72
2023/03/05 06:25:00;;;;;;;17.00;13.57;;;;;;;7.28;50.00;94423.56;5001646;28;20267;-71
2023/03/05 06:27:25;;;;;;;19.77;13.73;;;;;;;7.17;49.78;94425.56;4982219;28;20303;-70
2023/03/05 06:29:52;;;;;;;19.47;14.07;;;;;;;7.22;49.44;94424.16;4985011;28;20223;-71
2023/03/05 06:32:18;;;;;;;21.10;14.47;;;;;;;6.90;50.17;94431.59;4982447;28;20215;-71
2023/03/05 06:34:43;;;;;;;18.00;14.40;;;;;;;7.17;49.47;94420.31;4982757;28;20238;-71
2023/03/05 06:37:09;;;;;;;18.40;13.70;;;;;;;7.02;49.68;94422.59;4982399;28;20180;-71
2023/03/05 06:39:34;;;;;;;17.40;12.90;;;;;;;7.12;48.98;94427.78;4983322;28;20242;-68
2023/03/05 06:42:00;;;;;;;15.63;12.33;;;;;;;7.05;49.06;94424.91;4979796;28;20229;-69
2023/03/05 06:44:25;;;;;;;19.37;13.77;;;;;;;7.09;48.93;94436.72;4981787;28;20224;-69
2023/03/05 06:46:51;;;;;;;18.90;13.90;;;;;;;6.97;48.59;94422.19;4980153;28;20216;-69
2023/03/05 06:49:16;;;;;;;17.57;13.77;;;;;;;7.18;48.19;94419.34;4981658;28;20195;-68
2023/03/05 06:51:41;;;;;;;16.33;12.97;;;;;;;7.19;47.72;94432.28;4979172;28;20224;-69
2023/03/05 06:54:11;;;;;;;19.23;13.73;;;;;;;7.10;47.76;94434.94;4981443;28;20216;-69
2023/03/05 06:56:38;;;;;;;15.20;12.93;;;;;;;7.08;47.99;94435.06;4977986;28;20235;-69
2023/03/05 06:59:04;;;;;;;16.33;12.83;;;;;;;7.11;48.22;94426.97;4983362;28;20239;-69
2023/03/05 07:01:30;;;;;;;18.57;13.77;;;;;;;7.03;48.16;94438.13;4984874;28;20207;-68
2023/03/05 07:04:01;;;;;;;18.47;14.23;;;;;;;7.31;47.35;94432.91;4980348;28;20298;-70
2023/03/05 07:06:28;;;;;;;17.40;13.53;;;;;;;7.40;47.27;94432.00;4985618;28;20528;-68
2023/03/05 07:09:00;;;;;;;16.57;14.00;;;;;;;7.74;45.55;94431.38;4978495;28;20237;-68
2023/03/05 07:11:25;;;;;;;17.07;13.63;;;;;;;7.63;45.73;94442.06;4977643;28;20353;-69
2023/03/05 07:13:51;;;;;;;19.53;14.17;;;;;;;7.78;45.74;94430.13;4982510;28;20215;-70
2023/03/05 07:16:22;;;;;;;16.63;13.80;;;;;;;7.73;46.07;94437.59;4982556;28;20190;-69
2023/03/05 07:18:48;;;;;;;19.77;14.33;;;;;;;7.68;46.06;94434.59;4980612;28;20234;-69
2023/03/05 07:21:20;;;;;;;17.30;13.53;;;;;;;7.72;45.37;94430.72;4980364;28;20219;-70
2023/03/05 07:23:45;;;;;;;19.53;15.40;;;;;;;7.50;46.24;94442.44;4980096;28;20232;-69
2023/03/05 07:26:35;;;;;;;21.77;15.83;;;;;;;7.88;45.84;94445.75;4983815;28;20243;-69
2023/03/05 07:29:01;;;;;;;18.23;14.57;;;;;;;7.72;45.71;94435.94;4980892;28;20227;-69
2023/03/05 07:31:30;;;;;;;17.33;14.13;;;;;;;7.81;45.43;94440.31;4985408;28;20195;-69
2023/03/05 07:33:56;;;;;;;19.60;14.93;;;;;;;7.67;45.78;94443.41;4982165;28;20188;-69
2023/03/05 07:36:23;;;;;;;18.87;15.73;;;;;;;7.42;46.40;94439.72;4980483;28;20307;-69
2023/03/05 07:38:48;;;;;;;23.30;15.23;;;;;;;7.52;46.48;94430.03;4978164;28;20219;-68
2023/03/05 07:41:18;;;;;;;20.67;17.03;;;;;;;7.68;46.46;94439.84;4981415;28;20216;-65
2023/03/05 07:43:45;;;;;;;19.90;15.87;;;;;;;7.59;47.03;94433.72;4977913;28;20294;-63
2023/03/05 07:46:14;;;;;;;19.63;16.17;;;;;;;7.54;47.62;94435.94;4983161;28;20214;-65
2023/03/05 07:48:39;;;;;;;20.03;16.93;;;;;;;7.65;47.01;94429.66;4982161;28;20281;-66
2023/03/05 07:51:08;;;;;;;21.03;16.70;;;;;;;7.29;47.83;94445.28;4980095;28;20223;-66
2023/03/05 07:53:33;;;;;;;19.10;16.47;;;;;;;7.19;48.52;94428.81;4980286;28;20299;-64
2023/03/05 07:55:59;;;;;;;22.47;18.13;;;;;;;7.38;48.64;94438.38;4980941;28;20303;-65
2023/03/05 07:58:25;;;;;;;24.07;18.23;;;;;;;7.38;48.45;94436.59;4983726;28;20202;-65
2023/03/05 08:00:50;;;;;;;23.93;17.83;;;;;;;7.56;48.15;94446.25;4988806;28;20223;-65
2023/03/05 08:03:16;;;;;;;24.17;18.37;;;;;;;7.74;47.60;94437.44;4984802;28;20228;-64
2023/03/05 08:05:41;;;;;;;25.50;17.60;;;;;;;7.77;47.62;94438.94;4983630;28;20329;-66
2023/03/05 08:08:07;;;;;;;21.70;17.60;;;;;;;7.66;48.08;94439.16;4978336;28;20238;-64
2023/03/05 08:10:34;;;;;;;24.60;17.63;;;;;;;7.89;47.41;94437.75;4983782;28;20184;-65
2023/03/05 08:12:59;;;;;;;23.50;17.77;;;;;;;7.85;47.94;94433.78;4984758;28;20180;-65
2023/03/05 08:15:25;;;;;;;28.90;18.10;;;;;;;8.01;47.18;94433.09;4987895;28;20220;-65
2023/03/05 08:17:50;;;;;;;25.77;17.47;;;;;;;7.98;47.64;94450.91;4985129;28;20239;-65
2023/03/05 08:20:18;;;;;;;25.53;18.13;;;;;;;7.70;48.74;94443.13;4981580;28;20227;-68
2023/03/05 08:22:43;;;;;;;22.67;17.17;;;;;;;7.90;48.60;94449.84;4985439;28;20239;-67
2023/03/05 08:25:09;;;;;;;26.30;20.23;;;;;;;7.98;48.10;94446.50;4984528;28;20269;-68
2023/03/05 08:27:38;;;;;;;23.87;17.33;;;;;;;7.94;47.85;94440.75;4984241;28;20227;-66
2023/03/05 08:30:04;;;;;;;25.03;16.93;;;;;;;8.03;48.04;94430.34;4984499;28;20223;-68
2023/03/05 08:32:29;;;;;;;26.20;18.70;;;;;;;8.28;47.17;94434.78;4984331;28;20238;-66
2023/03/05 08:34:58;;;;;;;22.87;17.80;;;;;;;8.29;47.87;94433.84;4983878;28;20234;-64
2023/03/05 08:37:24;;;;;;;22.70;17.47;;;;;;;8.47;47.13;94435.63;4982044;28;20200;-68
2023/03/05 08:39:50;;;;;;;24.20;18.73;;;;;;;8.46;46.79;94434.00;4985587;28;20192;-67
2023/03/05 08:42:15;;;;;;;24.70;17.30;;;;;;;8.50;46.99;94428.28;4999316;28;20235;-66
2023/03/05 08:44:41;;;;;;;24.40;18.63;;;;;;;8.47;47.30;94441.69;4985313;28;20219;-66
2023/03/05 08:47:06;;;;;;;23.60;17.33;;;;;;;8.08;47.98;94431.53;4986066;28;20287;-65
2023/03/05 08:49:32;;;;;;;23.43;18.13;;;;;;;8.29;47.55;94425.97;4982007;28;20196;-66
2023/03/05 08:51:57;;;;;;;24.60;17.70;;;;;;;8.57;47.55;94423.25;4969277;28;20211;-66
2023/03/05 08:54:22;;;;;;;24.93;18.30;;;;;;;8.88;46.50;94417.56;4989124;28;20234;-67
2023/03/05 08:56:48;;;;;;;22.30;17.47;;;;;;;8.98;45.59;94424.31;4982661;28;20289;-67
2023/03/05 08:59:14;;;;;;;21.87;18.00;;;;;;;8.92;44.30;94417.06;4983581;28;20236;-66
2023/03/05 09:01:40;;;;;;;21.23;16.87;;;;;;;8.77;45.13;94410.78;4984572;28;20191;-66
2023/03/05 09:04:05;;;;;;;22.57;17.27;;;;;;;8.85;44.67;94405.56;4985288;28;20231;-66
2023/03/05 09:06:33;;;;;;;20.90;17.80;;;;;;;8.72;45.19;94407.78;4985705;28;20255;-69
2023/03/05 09:08:58;;;;;;;22.10;17.47;;;;;;;8.77;45.36;94402.91;4987522;28;20223;-67
2023/03/05 09:11:24;;;;;;;20.53;17.40;;;;;;;8.95;44.56;94413.31;4983550;28;20211;-66
2023/03/05 09:13:50;;;;;;;22.27;16.73;;;;;;;9.06;43.51;94405.16;4982442;28;20278;-67
2023/03/05 09:16:17;;;;;;;23.77;17.50;;;;;;;8.50;44.64;94398.63;4988412;28;20199;-65
2023/03/05 09:18:42;;;;;;;19.87;16.33;;;;;;;8.87;43.59;94402.78;4981986;28;20231;-65
2023/03/05 09:21:10;;;;;;;20.57;15.70;;;;;;;8.81;42.48;94402.41;4987045;28;20215;-65
2023/03/05 09:23:36;;;;;;;22.07;16.93;;;;;;;8.50;43.90;94391.63;4983415;28;20232;-65
2023/03/05 09:26:04;;;;;;;21.87;17.47;;;;;;;8.83;43.33;94410.16;4983395;28;20215;-66
2023/03/05 09:28:30;;;;;;;23.30;16.90;;;;;;;9.11;42.23;94387.16;4986264;28;20200;-66
2023/03/05 09:30:55;;;;;;;18.63;15.57;;;;;;;8.97;42.17;94396.44;4987721;28;20392;-66
2023/03/05 09:33:20;;;;;;;18.67;15.27;;;;;;;9.03;42.27;94384.50;4979594;28;20601;-67
2023/03/05 09:35:47;;;;;;;20.00;15.00;;;;;;;9.18;41.59;94382.09;4982691;28;20308;-67
2023/03/05 09:38:13;;;;;;;18.40;15.00;;;;;;;9.35;41.81;94380.34;4980511;28;20238;-67
2023/03/05 09:40:54;;;;;;;19.80;14.50;;;;;;;9.48;40.58;94372.84;4982575;28;20200;-67
2023/03/05 09:43:42;;;;;;;19.20;14.33;;;;;;;9.79;40.35;94373.06;4981383;28;20246;-66
2023/03/05 09:46:29;;;;;;;19.67;15.53;;;;;;;9.97;39.17;94365.03;4983916;28;20279;-64
2023/03/05 09:49:03;;;;;;;18.90;14.97;;;;;;;9.79;39.02;94380.13;4970430;28;20251;-67
2023/03/05 09:51:34;;;;;;;17.87;14.30;;;;;;;9.42;39.48;94363.00;4973793;28;20227;-63
2023/03/05 09:54:05;;;;;;;17.77;13.37;;;;;;;9.56;39.42;94354.47;4975291;28;20231;-63
2023/03/05 09:56:38;;;;;;;16.57;14.10;;;;;;;9.94;38.97;94358.31;4969541;28;20231;-68
2023/03/05 09:59:12;;;;;;;22.07;15.83;;;;;;;10.26;37.94;94363.69;4967209;28;20375;-67
2023/03/05 10:01:41;;;;;;;17.83;14.30;;;;;;;9.78;37.90;94346.94;4974057;28;20198;-64
2023/03/05 10:04:11;;;;;;;16.13;13.57;;;;;;;9.94;36.96;94352.22;4970995;28;20231;-68
2023/03/05 10:06:49;;;;;;;15.13;13.53;;;;;;;10.00;37.15;94341.06;4966572;28;20239;-68
2023/03/05 10:09:41;;;;;;;16.87;14.20;;;;;;;10.22;37.35;94344.00;4970652;28;20236;-65
2023/03/05 10:12:26;;;;;;;15.43;13.83;;;;;;;10.57;35.88;94342.81;4972857;28;20231;-68
2023/03/05 10:14:53;;;;;;;17.00;14.80;;;;;;;10.33;36.19;94341.06;4967840;28;20249;-64
2023/03/05 10:17:18;;;;;;;17.93;14.77;;;;;;;10.53;36.30;94347.59;4976287;28;20342;-63
2023/03/05 10:19:55;;;;;;;20.23;14.83;;;;;;;10.32;36.47;94334.19;4985494;28;20314;-68
2023/03/05 10:22:32;;;;;;;16.83;13.87;;;;;;;10.23;37.21;94324.63;4958595;28;20216;-65
2023/03/05 10:25:18;;;;;;;16.57;14.17;;;;;;;10.51;36.57;94338.25;4980380;28;20212;-65
2023/03/05 10:27:50;;;;;;;15.90;14.17;;;;;;;10.75;36.63;94316.31;4983125;28;21018;-64
2023/03/05 10:30:53;;;;;;;17.10;14.03;;;;;;;10.62;36.74;94313.41;4984759;28;20302;-68
2023/03/05 10:33:28;;;;;;;18.10;15.40;;;;;;;10.79;36.32;94307.09;4981739;28;20227;-66
2023/03/05 10:36:00;;;;;;;18.70;15.20;;;;;;;10.58;36.95;94308.50;4981343;28;20218;-67
2023/03/05 10:38:43;;;;;;;19.67;14.87;;;;;;;10.40;36.72;94301.78;4980568;28;20230;-68
2023/03/05 10:41:18;;;;;;;17.47;13.57;;;;;;;10.71;36.10;94307.13;4983338;28;20281;-68
2023/03/05 10:43:50;;;;;;;16.07;12.97;;;;;;;10.63;35.98;94289.56;4992765;28;20279;-66
2023/03/05 10:46:19;;;;;;;16.70;14.03;;;;;;;10.94;35.46;94286.16;4983126;28;20227;-68
2023/03/05 10:48:52;;;;;;;16.17;13.43;;;;;;;11.19;34.35;94295.56;4984233;28;20223;-63
2023/03/05 10:51:37;;;;;;;14.57;10.53;;;;;;;10.99;33.86;94294.34;4982160;28;20291;-63
2023/03/05 10:54:17;;;;;;;12.60;11.30;;;;;;;10.88;34.22;94269.25;4981007;28;20227;-65
2023/03/05 10:56:42;;;;;;;15.90;11.97;;;;;;;11.34;33.52;94271.13;4981787;28;20250;-65
2023/03/05 10:59:08;;;;;;;12.50;10.97;;;;;;;10.76;34.26;94273.25;4983000;28;20259;-65
2023/03/05 11:01:35;;;;;;;12.90;11.50;;;;;;;11.24;33.91;94263.47;4981733;28;20191;-64
2023/03/05 11:04:03;;;;;;;12.47;10.83;;;;;;;11.29;33.26;94262.94;4981805;28;20219;-65
2023/03/05 11:06:28;;;;;;;12.23;10.93;;;;;;;11.03;34.29;94264.06;4976526;28;20252;-64
2023/03/05 11:08:54;;;;;;;13.03;10.70;;;;;;;11.35;33.67;94262.25;4981164;28;20231;-64
2023/03/05 11:11:21;;;;;;;12.77;11.47;;;;;;;10.96;33.89;94256.06;4978641;28;20242;-66
2023/03/05 11:14:02;;;;;;;13.83;12.03;;;;;;;11.20;34.28;94264.78;4979761;28;20226;-65
2023/03/05 11:16:33;;;;;;;13.00;11.50;;;;;;;11.13;34.23;94248.88;4979760;28;20192;-65
2023/03/05 11:19:16;;;;;;;13.57;11.63;;;;;;;11.10;34.27;94240.53;4984126;28;20206;-64
2023/03/05 11:21:44;;;;;;;13.50;11.87;;;;;;;11.13;34.12;94246.25;4981456;28;20223;-63
2023/03/05 11:24:17;;;;;;;13.30;11.90;;;;;;;11.32;34.35;94250.25;4981222;28;20219;-66
2023/03/05 11:27:00;;;;;;;12.23;11.03;;;;;;;11.51;33.83;94248.94;4983978;28;20224;-63